Ponce, PR (00734)

2:47 PM AST on January 29, 2015 (GMT -0400)
City | Change Station
CLOSE
Current Station
Personal Weather Station
Location: Ponce, PR
Elevation: 36 ft
Nearby Weather Stations

Elev 36 ft 18.00 °N, 66.64 °W | Updated 15 seconds ago

Mostly Cloudy
Mostly Cloudy
77.0 °F
Feels Like 79 °F
N
5.4
Wind Variable Wind from East
Gusts 11.4 mph

Today
High -- | Low -- °F
--% Chance of Precip.
Yesterday
High -- | Low -- °F
Precip. -- in
6:59 AM 6:19 PM
Waxing Gibbous, 76% visible
Pressure 29.96 in
Visibility 10.0 miles
Clouds Scattered Clouds 3000 ft
Mostly Cloudy 5000 ft
Heat Index 79 °F
Dew Point 68 °F
Humidity 74%
Rainfall 0.04 in
Snow Depth Not available.
UV 4 out of 12
Pollen Not available.
Air Quality Not available.
Flu Activity Not available.
METAR TJPS 291750Z 24010KT 10SM SCT030 BKN050 28/23 A2996

More Conditions Fewer Conditions

Pressure 29.96 in
Visibility 10.0 miles
Clouds Scattered Clouds 3000 ft
Mostly Cloudy 5000 ft
Heat Index 79 °F
Dew Point 68 °F
Humidity 74%
Rainfall 0.04 in
Snow Depth Not available.
UV 4 out of 12
Pollen Not available.
Air Quality Not available.
Flu Activity Not available.
METAR TJPS 291750Z 24010KT 10SM SCT030 BKN050 28/23 A2996

More Conditions Fewer Conditions

10-Day Weather Forecast

Almanac

Astronomy

Jan. 29, 2015 Rise Set
Actual Time
Civil Twilight
Nautical Twilight
Astronomical Twilight
Moon
Length of Visible Light
Length of Day
Tomorrow will be .
, % of the Moon is Illuminated

Today's Extremes

State Highs State Lows

Community

WunderPhotos

Upload Photos

1,791,530 photos uploaded!

WunderBlogs® & News

Nearby

Air Quality

  Air Quality AQ Index Pollutant
Not available.

Snow Depth

Station Depth Elevation

Earthquake Activity

City Distance Mag. Time & Date
Minimum magnitude displayed is 2.5.

Coastal Water Temperatures

Place Temperature

Nearby Weather Stations